createdAt,value
2018-03-16T00:00:33.971Z,9.10
2018-03-16T00:03:00.287Z,9.00
2018-03-16T00:05:27.003Z,9.40
2018-03-16T00:07:54.231Z,9.40
2018-03-16T00:10:20.530Z,9.60
2018-03-16T00:12:47.497Z,9.30
2018-03-16T00:15:13.786Z,9.30
2018-03-16T00:17:40.072Z,9.40
2018-03-16T00:20:06.551Z,9.40
2018-03-16T00:22:38.143Z,9.40
2018-03-16T00:25:04.537Z,9.50
2018-03-16T00:27:30.846Z,9.60
2018-03-16T00:29:57.140Z,9.50
2018-03-16T00:32:23.796Z,9.60
2018-03-16T00:34:50.628Z,9.50
2018-03-16T00:37:17.273Z,9.40
2018-03-16T00:39:43.959Z,9.40
2018-03-16T00:42:10.279Z,9.40
2018-03-16T00:44:36.666Z,9.40
2018-03-16T00:47:02.918Z,9.30
2018-03-16T00:49:29.618Z,9.20
2018-03-16T00:51:55.887Z,9.20
2018-03-16T00:54:22.122Z,9.00
2018-03-16T00:56:48.442Z,9.10
2018-03-16T00:59:14.812Z,9.20
2018-03-16T01:01:41.140Z,9.10
2018-03-16T01:04:07.573Z,9.10
2018-03-16T01:06:33.869Z,9.10
2018-03-16T01:09:00.131Z,9.10
2018-03-16T01:11:26.437Z,9.10
2018-03-16T01:13:52.741Z,9.10
2018-03-16T01:16:19.278Z,9.20
2018-03-16T01:18:45.939Z,9.10
2018-03-16T01:21:12.204Z,9.10
2018-03-16T01:23:38.569Z,9.10
2018-03-16T01:26:04.891Z,9.10
2018-03-16T01:28:31.178Z,8.90
2018-03-16T01:30:57.552Z,8.80
2018-03-16T01:33:23.798Z,8.50
2018-03-16T01:35:50.042Z,8.50
2018-03-16T01:38:16.319Z,8.60
2018-03-16T01:40:42.592Z,8.50
2018-03-16T01:43:08.982Z,8.50
2018-03-16T01:45:35.304Z,8.50
2018-03-16T01:48:01.600Z,8.50
2018-03-16T01:50:27.874Z,8.50
2018-03-16T01:53:06.996Z,8.50
2018-03-16T01:55:34.566Z,8.40
2018-03-16T01:58:00.915Z,8.40
2018-03-16T02:00:27.582Z,8.20
2018-03-16T02:02:54.220Z,8.10
2018-03-16T02:05:20.932Z,8.20
2018-03-16T02:07:47.200Z,8.20
2018-03-16T02:10:13.881Z,8.20
2018-03-16T02:12:40.155Z,8.20
2018-03-16T02:15:06.489Z,8.10
2018-03-16T02:17:32.925Z,8.00
2018-03-16T02:20:00.112Z,7.90
2018-03-16T02:22:27.936Z,7.80
2018-03-16T02:24:55.105Z,7.80
2018-03-16T02:27:21.979Z,7.80
2018-03-16T02:29:48.809Z,7.60
2018-03-16T02:32:16.249Z,7.40
2018-03-16T02:34:43.303Z,7.40
2018-03-16T02:37:09.647Z,7.40
2018-03-16T02:39:36.914Z,7.30
2018-03-16T02:42:03.216Z,7.50
2018-03-16T02:44:29.512Z,7.60
2018-03-16T02:46:56.194Z,7.50
2018-03-16T02:49:22.450Z,7.50
2018-03-16T02:51:48.721Z,7.50
2018-03-16T02:54:15.379Z,7.50
2018-03-16T02:56:42.938Z,7.50
2018-03-16T02:59:09.310Z,7.40
2018-03-16T03:01:35.569Z,7.40
2018-03-16T03:04:01.928Z,7.30
2018-03-16T03:06:28.599Z,7.30
2018-03-16T03:08:55.416Z,7.30
2018-03-16T03:11:22.084Z,7.30
2018-03-16T03:13:48.731Z,7.60
2018-03-16T03:16:15.371Z,7.40
2018-03-16T03:18:42.007Z,7.30
2018-03-16T03:21:09.270Z,7.20
2018-03-16T03:23:35.944Z,7.20
2018-03-16T03:26:02.245Z,7.20
2018-03-16T03:28:28.911Z,7.30
2018-03-16T03:30:55.174Z,7.30
2018-03-16T03:33:21.466Z,7.30
2018-03-16T03:35:48.132Z,7.30
2018-03-16T03:38:14.378Z,7.30
2018-03-16T03:40:40.656Z,7.20
2018-03-16T03:43:07.077Z,7.30
2018-03-16T03:45:33.337Z,7.10
2018-03-16T03:47:59.592Z,7.00
2018-03-16T03:50:25.984Z,7.10
2018-03-16T03:52:52.809Z,7.20
2018-03-16T03:55:19.064Z,7.20
2018-03-16T03:57:45.353Z,7.20
2018-03-16T04:00:11.989Z,7.40
2018-03-16T04:02:38.638Z,7.50
2018-03-16T04:05:05.608Z,7.30
2018-03-16T04:07:31.850Z,7.30
2018-03-16T04:09:58.165Z,7.30
2018-03-16T04:12:24.424Z,7.10
2018-03-16T04:14:50.756Z,7.10
2018-03-16T04:17:17.368Z,7.20
2018-03-16T04:19:44.339Z,7.00
2018-03-16T04:22:10.589Z,7.00
2018-03-16T04:24:37.031Z,7.10
2018-03-16T04:27:03.331Z,7.00
2018-03-16T04:29:30.010Z,7.00
2018-03-16T04:31:56.342Z,7.10
2018-03-16T04:34:22.782Z,7.30
2018-03-16T04:36:49.744Z,7.30
2018-03-16T04:39:16.000Z,7.10
2018-03-16T04:41:42.267Z,7.30
2018-03-16T04:44:09.012Z,7.30
2018-03-16T04:46:35.665Z,7.30
2018-03-16T04:49:02.390Z,6.90
2018-03-16T04:51:29.564Z,6.80
2018-03-16T04:53:55.845Z,6.80
2018-03-16T04:56:22.132Z,6.80
2018-03-16T04:58:48.889Z,7.10
2018-03-16T05:01:15.227Z,7.10
2018-03-16T05:03:41.493Z,6.90
2018-03-16T05:06:07.884Z,6.70
2018-03-16T05:08:34.538Z,6.60
2018-03-16T05:11:00.820Z,6.60
2018-03-16T05:13:27.172Z,6.60
2018-03-16T05:15:53.423Z,6.60
2018-03-16T05:18:19.695Z,6.60
2018-03-16T05:20:46.006Z,6.70
2018-03-16T05:23:12.661Z,6.50
2018-03-16T05:25:39.454Z,6.30
2018-03-16T05:28:05.722Z,6.30
2018-03-16T05:30:32.421Z,6.10
2018-03-16T05:32:58.674Z,6.10
2018-03-16T05:35:24.987Z,6.00
2018-03-16T05:37:51.266Z,5.90
2018-03-16T05:40:17.527Z,6.10
2018-03-16T05:42:44.187Z,6.20
2018-03-16T05:45:10.494Z,6.20
2018-03-16T05:47:37.274Z,6.30
2018-03-16T05:50:03.650Z,6.30
2018-03-16T05:52:29.895Z,6.30
2018-03-16T05:54:56.157Z,6.20
2018-03-16T05:57:22.461Z,6.00
2018-03-16T05:59:48.788Z,6.10
2018-03-16T06:02:15.060Z,5.90
2018-03-16T06:04:41.764Z,6.00
2018-03-16T06:07:09.138Z,6.00
2018-03-16T06:09:35.499Z,5.90
2018-03-16T06:12:02.207Z,5.80
2018-03-16T06:14:28.469Z,5.80
2018-03-16T06:16:55.138Z,5.90
2018-03-16T06:19:21.797Z,5.70
2018-03-16T06:21:48.663Z,5.70
2018-03-16T06:24:14.911Z,5.80
2018-03-16T06:26:41.211Z,5.90
2018-03-16T06:29:07.627Z,6.00
2018-03-16T06:31:34.228Z,5.70
2018-03-16T06:34:00.816Z,5.70
2018-03-16T06:36:27.433Z,6.00
2018-03-16T06:38:53.902Z,6.00
2018-03-16T06:41:20.577Z,6.00
2018-03-16T06:43:46.870Z,6.00
2018-03-16T06:46:13.539Z,6.50
2018-03-16T06:48:40.194Z,6.50
2018-03-16T06:51:06.477Z,6.70
2018-03-16T06:53:32.746Z,6.70
2018-03-16T06:55:59.424Z,6.70
2018-03-16T06:58:26.243Z,6.70
2018-03-16T07:00:52.499Z,6.70
2018-03-16T07:03:18.848Z,7.00
2018-03-16T07:05:45.100Z,6.80
2018-03-16T07:08:11.903Z,7.00
2018-03-16T07:10:39.153Z,7.00
2018-03-16T07:13:06.375Z,7.20
2018-03-16T07:15:34.679Z,7.30
2018-03-16T07:18:01.399Z,6.90
2018-03-16T07:20:27.653Z,6.90
2018-03-16T07:22:54.285Z,6.80
2018-03-16T07:25:20.567Z,6.80
2018-03-16T07:27:48.816Z,6.70
2018-03-16T07:30:15.467Z,7.00
2018-03-16T07:32:43.040Z,7.20
2018-03-16T07:35:12.782Z,7.20
2018-03-16T07:37:41.183Z,7.20
2018-03-16T07:40:07.559Z,7.20
2018-03-16T07:42:34.616Z,6.80
2018-03-16T07:45:01.239Z,6.90
2018-03-16T07:47:27.549Z,7.00
2018-03-16T07:49:53.812Z,7.20
2018-03-16T07:52:20.089Z,7.40
2018-03-16T07:54:46.374Z,7.30
2018-03-16T07:57:12.698Z,7.10
2018-03-16T07:59:39.105Z,7.20
2018-03-16T08:02:05.990Z,7.30
2018-03-16T08:04:32.279Z,7.20
2018-03-16T08:06:58.573Z,7.10
2018-03-16T08:09:24.843Z,7.00
2018-03-16T08:11:53.483Z,7.40
2018-03-16T08:14:20.425Z,7.40
2018-03-16T08:16:47.610Z,7.30
2018-03-16T08:19:13.873Z,7.40
2018-03-16T08:21:40.207Z,7.20
2018-03-16T08:24:06.525Z,7.30
2018-03-16T08:26:33.207Z,7.60
2018-03-16T08:28:59.535Z,7.60
2018-03-16T08:31:25.821Z,7.30
2018-03-16T08:33:52.106Z,7.20
2018-03-16T08:36:18.466Z,7.60
2018-03-16T08:38:45.636Z,7.90
2018-03-16T08:41:11.934Z,8.20
2018-03-16T08:43:39.068Z,8.20
2018-03-16T08:46:06.049Z,8.10
2018-03-16T08:48:32.327Z,8.10
2018-03-16T08:50:58.581Z,8.20
2018-03-16T08:53:25.544Z,8.40
2018-03-16T08:55:52.177Z,8.30
2018-03-16T08:58:18.423Z,8.30
2018-03-16T09:00:46.361Z,8.50
2018-03-16T09:03:12.645Z,8.50
2018-03-16T09:05:39.020Z,8.90
2018-03-16T09:08:05.317Z,8.90
2018-03-16T09:10:31.582Z,8.90
2018-03-16T09:12:57.842Z,9.00
2018-03-16T09:15:24.144Z,8.90
2018-03-16T09:17:50.449Z,8.90
2018-03-16T09:20:17.104Z,8.50
2018-03-16T09:22:44.247Z,8.50
2018-03-16T09:25:10.933Z,8.50
2018-03-16T09:27:37.241Z,8.50
2018-03-16T09:30:04.423Z,8.50
2018-03-16T09:32:30.716Z,8.60
2018-03-16T09:34:57.363Z,9.10
2018-03-16T09:37:24.052Z,9.20
2018-03-16T09:39:50.353Z,9.20
2018-03-16T09:42:17.016Z,9.90
2018-03-16T09:44:43.254Z,9.90
2018-03-16T09:47:09.588Z,10.20
2018-03-16T09:49:35.905Z,10.00
2018-03-16T09:52:02.583Z,10.20
2018-03-16T09:54:28.872Z,10.20
2018-03-16T09:56:55.553Z,10.90
2018-03-16T09:59:21.855Z,10.90
2018-03-16T10:01:49.487Z,11.50
2018-03-16T10:04:15.799Z,11.50
2018-03-16T10:06:42.098Z,11.20
2018-03-16T10:09:09.128Z,10.30
2018-03-16T10:11:35.439Z,10.30
2018-03-16T10:14:01.749Z,10.10
2018-03-16T10:16:28.569Z,9.80
2018-03-16T10:18:55.285Z,10.20
2018-03-16T10:21:21.570Z,10.20
2018-03-16T10:23:47.884Z,10.20
2018-03-16T10:26:14.539Z,10.50
2018-03-16T10:28:40.827Z,10.50
2018-03-16T10:31:07.173Z,10.30
2018-03-16T10:33:33.404Z,10.10
2018-03-16T10:35:59.666Z,9.80
2018-03-16T10:38:26.579Z,9.90
2018-03-16T10:40:52.846Z,9.90
2018-03-16T10:43:19.505Z,10.00
2018-03-16T10:45:46.424Z,10.20
2018-03-16T10:48:12.700Z,10.20
2018-03-16T10:50:39.967Z,10.30
2018-03-16T10:53:06.280Z,10.40
2018-03-16T10:55:32.905Z,10.90
2018-03-16T10:57:59.550Z,10.90
2018-03-16T11:00:31.984Z,10.90
2018-03-16T11:03:04.392Z,10.80
2018-03-16T11:05:30.706Z,11.00
2018-03-16T11:07:57.013Z,11.60
2018-03-16T11:10:23.321Z,11.90
2018-03-16T11:12:49.970Z,12.80
2018-03-16T11:15:16.660Z,13.10
2018-03-16T11:17:42.955Z,13.10
2018-03-16T11:20:09.307Z,13.30
2018-03-16T11:22:35.579Z,13.50
2018-03-16T11:25:01.867Z,13.40
2018-03-16T11:27:28.128Z,13.20
2018-03-16T11:29:54.448Z,13.00
2018-03-16T11:32:20.729Z,12.50
2018-03-16T11:34:47.004Z,12.20
2018-03-16T11:37:13.674Z,12.40
2018-03-16T11:39:39.941Z,12.40
2018-03-16T11:42:06.249Z,12.50
2018-03-16T11:44:32.564Z,12.40
2018-03-16T11:46:58.831Z,12.40
2018-03-16T11:49:25.125Z,12.40
2018-03-16T11:51:51.822Z,12.60
2018-03-16T11:54:18.065Z,12.60
2018-03-16T11:56:44.977Z,14.90
2018-03-16T11:59:11.296Z,20.40
2018-03-16T12:01:38.132Z,25.40
2018-03-16T12:04:04.808Z,29.40
2018-03-16T12:06:31.098Z,29.40
2018-03-16T12:08:57.791Z,23.90
2018-03-16T12:11:24.111Z,23.90
2018-03-16T12:13:50.379Z,21.60
2018-03-16T12:16:16.655Z,19.10
2018-03-16T12:18:43.323Z,16.70
2018-03-16T12:21:09.643Z,16.70
2018-03-16T12:23:35.919Z,15.90
2018-03-16T12:26:02.257Z,16.00
2018-03-16T12:28:49.242Z,15.40
2018-03-16T12:30:54.890Z,14.70
2018-03-16T12:33:21.239Z,14.10
2018-03-16T12:35:47.554Z,13.90
2018-03-16T12:38:14.228Z,13.40
2018-03-16T12:40:40.625Z,13.40
2018-03-16T12:43:06.920Z,13.00
2018-03-16T12:45:33.233Z,13.10
2018-03-16T12:47:59.549Z,14.90
2018-03-16T12:50:26.189Z,22.70
2018-03-16T12:52:52.832Z,24.30
2018-03-16T12:55:19.483Z,24.90
2018-03-16T12:57:46.130Z,25.30
2018-03-16T13:00:12.792Z,24.70
2018-03-16T13:02:39.141Z,24.70
2018-03-16T13:05:05.450Z,24.90
2018-03-16T13:07:32.126Z,24.70
2018-03-16T13:09:59.320Z,24.70
2018-03-16T13:12:25.624Z,24.90
2018-03-16T13:14:52.493Z,23.60
2018-03-16T13:17:18.768Z,22.10
2018-03-16T13:19:45.699Z,19.10
2018-03-16T13:22:12.326Z,18.90
2018-03-16T13:24:38.704Z,18.80
2018-03-16T13:27:05.402Z,17.60
2018-03-16T13:29:31.634Z,17.60
2018-03-16T13:31:57.953Z,16.80
2018-03-16T13:34:24.297Z,16.40
2018-03-16T13:36:50.589Z,16.10
2018-03-16T13:39:17.257Z,15.30
2018-03-16T13:41:43.847Z,15.20
2018-03-16T13:44:10.191Z,15.00
2018-03-16T13:46:36.459Z,14.40
2018-03-16T13:49:02.774Z,14.00
2018-03-16T13:51:29.429Z,14.30
2018-03-16T13:53:55.735Z,14.30
2018-03-16T13:56:22.038Z,14.00
2018-03-16T13:58:48.355Z,13.70
2018-03-16T14:01:14.652Z,13.60
2018-03-16T14:03:41.335Z,13.20
2018-03-16T14:06:07.628Z,13.20
2018-03-16T14:08:33.941Z,12.40
2018-03-16T14:11:00.214Z,11.40
2018-03-16T14:13:26.878Z,11.10
2018-03-16T14:15:54.082Z,11.10
2018-03-16T14:18:20.399Z,11.50
2018-03-16T14:20:46.721Z,12.40
2018-03-16T14:23:13.006Z,13.10
2018-03-16T14:25:39.499Z,13.30
2018-03-16T14:28:05.830Z,13.10
2018-03-16T14:30:32.138Z,12.80
2018-03-16T14:32:58.804Z,12.70
2018-03-16T14:35:25.132Z,12.70
2018-03-16T14:37:51.418Z,12.50
2018-03-16T14:40:17.723Z,13.20
2018-03-16T14:42:44.040Z,14.50
2018-03-16T14:45:10.299Z,15.30
2018-03-16T14:47:36.624Z,15.90
2018-03-16T14:50:03.006Z,15.80
2018-03-16T14:52:29.349Z,15.30
2018-03-16T14:54:55.653Z,14.60
2018-03-16T14:57:21.974Z,14.10
2018-03-16T14:59:48.317Z,14.00
2018-03-16T15:02:14.611Z,13.70
2018-03-16T15:04:41.329Z,13.60
2018-03-16T15:07:07.690Z,13.60
2018-03-16T15:09:34.206Z,13.50
2018-03-16T15:12:00.506Z,13.70
2018-03-16T15:14:26.835Z,14.50
2018-03-16T15:16:53.146Z,14.70
2018-03-16T15:19:19.837Z,14.00
2018-03-16T15:21:46.157Z,14.00
2018-03-16T15:24:12.472Z,13.90
2018-03-16T15:26:38.852Z,14.40
2018-03-16T15:29:05.137Z,14.60
2018-03-16T15:31:31.829Z,15.10
2018-03-16T15:33:58.214Z,15.10
2018-03-16T15:36:24.919Z,14.40
2018-03-16T15:38:51.211Z,14.40
2018-03-16T15:41:18.379Z,14.30
2018-03-16T15:43:45.241Z,13.80
2018-03-16T15:46:11.596Z,13.10
2018-03-16T15:48:38.453Z,12.70
2018-03-16T15:51:04.786Z,12.50
2018-03-16T15:53:31.110Z,12.40
2018-03-16T15:55:57.405Z,12.20
2018-03-16T15:58:24.042Z,12.50
2018-03-16T16:00:50.699Z,12.60
2018-03-16T16:03:17.392Z,12.60
2018-03-16T16:05:43.709Z,12.50
2018-03-16T16:08:10.050Z,12.40
2018-03-16T16:10:36.328Z,12.20
2018-03-16T16:13:02.666Z,12.30
2018-03-16T16:15:30.049Z,12.70
2018-03-16T16:17:56.755Z,12.40
2018-03-16T16:20:23.069Z,12.40
2018-03-16T16:22:49.394Z,12.50
2018-03-16T16:25:15.682Z,12.30
2018-03-16T16:27:41.965Z,12.40
2018-03-16T16:30:08.431Z,12.50
2018-03-16T16:32:34.729Z,12.30
2018-03-16T16:35:01.008Z,12.30
2018-03-16T16:37:27.308Z,12.30
2018-03-16T16:39:53.649Z,12.20
2018-03-16T16:42:19.908Z,12.00
2018-03-16T16:44:46.235Z,12.00
2018-03-16T16:47:12.552Z,12.00
2018-03-16T16:49:38.910Z,12.00
2018-03-16T16:52:05.291Z,12.10
2018-03-16T16:54:31.954Z,12.10
2018-03-16T16:56:58.315Z,12.10
2018-03-16T16:59:24.619Z,12.10
2018-03-16T17:01:51.296Z,12.00
2018-03-16T17:04:17.607Z,12.00
2018-03-16T17:06:43.900Z,11.60
2018-03-16T17:09:10.224Z,11.40
2018-03-16T17:11:36.493Z,11.30
2018-03-16T17:14:03.408Z,11.20
2018-03-16T17:16:29.740Z,11.30
2018-03-16T17:18:56.059Z,11.50
2018-03-16T17:21:22.385Z,11.40
2018-03-16T17:23:48.678Z,11.30
2018-03-16T17:26:15.354Z,11.00
2018-03-16T17:28:41.647Z,11.00
2018-03-16T17:31:09.032Z,10.90
2018-03-16T17:33:35.667Z,11.00
2018-03-16T17:36:02.967Z,11.10
2018-03-16T17:38:29.317Z,10.80
2018-03-16T17:40:55.659Z,10.50
2018-03-16T17:43:22.058Z,10.50
2018-03-16T17:45:48.354Z,10.60
2018-03-16T17:48:14.705Z,10.40
2018-03-16T17:50:41.022Z,10.30
2018-03-16T17:53:09.900Z,10.50
2018-03-16T17:55:36.571Z,10.60
2018-03-16T17:58:02.914Z,10.60
2018-03-16T18:00:29.248Z,10.60
2018-03-16T18:02:55.559Z,10.60
2018-03-16T18:05:21.831Z,10.60
2018-03-16T18:07:48.109Z,10.40
2018-03-16T18:10:14.424Z,10.30
2018-03-16T18:12:41.089Z,10.20
2018-03-16T18:15:07.369Z,10.20
2018-03-16T18:17:33.661Z,10.20
2018-03-16T18:19:59.954Z,10.10
2018-03-16T18:22:27.110Z,10.00
2018-03-16T18:24:53.794Z,9.80
2018-03-16T18:27:20.078Z,9.80
2018-03-16T18:29:46.654Z,9.80
2018-03-16T18:32:15.462Z,9.60
2018-03-16T18:34:41.782Z,9.40
2018-03-16T18:37:08.187Z,9.40
2018-03-16T18:39:34.458Z,9.30
2018-03-16T18:42:01.281Z,9.10
2018-03-16T18:44:27.597Z,9.00
2018-03-16T18:46:53.920Z,8.90
2018-03-16T18:49:20.179Z,8.70
2018-03-16T18:51:46.570Z,8.60
2018-03-16T18:54:12.868Z,8.50
2018-03-16T18:56:39.558Z,8.40
2018-03-16T18:59:05.923Z,8.40
2018-03-16T19:01:32.230Z,8.30
2018-03-16T19:03:58.544Z,8.30
2018-03-16T19:06:24.872Z,8.20
2018-03-16T19:08:51.534Z,8.00
2018-03-16T19:11:17.851Z,8.00
2018-03-16T19:13:44.424Z,7.90
2018-03-16T19:16:11.350Z,7.90
2018-03-16T19:18:38.276Z,7.90
2018-03-16T19:21:04.988Z,7.90
2018-03-16T19:23:31.308Z,7.90
2018-03-16T19:25:57.593Z,7.80
2018-03-16T19:28:23.890Z,7.70
2018-03-16T19:30:50.201Z,7.60
2018-03-16T19:33:17.245Z,7.60
2018-03-16T19:35:43.544Z,7.60
2018-03-16T19:38:09.955Z,7.70
2018-03-16T19:40:36.258Z,7.80
2018-03-16T19:43:02.614Z,7.90
2018-03-16T19:45:28.958Z,7.90
2018-03-16T19:47:55.231Z,7.80
2018-03-16T19:50:21.572Z,7.70
2018-03-16T19:52:48.874Z,7.60
2018-03-16T19:55:15.220Z,7.50
2018-03-16T19:57:41.842Z,7.40
2018-03-16T20:00:08.825Z,7.40
2018-03-16T20:02:35.130Z,7.40
2018-03-16T20:05:01.777Z,7.20
2018-03-16T20:07:28.141Z,7.20
2018-03-16T20:09:54.408Z,7.10
2018-03-16T20:12:20.727Z,7.00
2018-03-16T20:14:46.998Z,7.00
2018-03-16T20:17:13.668Z,7.00
2018-03-16T20:19:40.870Z,7.00
2018-03-16T20:22:07.207Z,7.00
2018-03-16T20:24:33.554Z,7.00
2018-03-16T20:26:59.834Z,6.90
2018-03-16T20:29:26.145Z,6.90
2018-03-16T20:31:52.795Z,6.90
2018-03-16T20:34:19.476Z,6.90
2018-03-16T20:36:45.792Z,6.90
2018-03-16T20:39:12.096Z,6.90
2018-03-16T20:41:39.690Z,6.80
2018-03-16T20:44:05.995Z,6.90
2018-03-16T20:46:32.299Z,6.80
2018-03-16T20:48:58.900Z,6.70
2018-03-16T20:51:25.166Z,6.60
2018-03-16T20:53:51.454Z,6.60
2018-03-16T20:56:18.169Z,6.60
2018-03-16T20:58:44.443Z,6.70
2018-03-16T21:01:11.104Z,6.60
2018-03-16T21:03:37.432Z,6.60
2018-03-16T21:06:03.786Z,6.60
2018-03-16T21:08:30.126Z,6.60
2018-03-16T21:10:56.421Z,6.70
2018-03-16T21:13:22.681Z,6.60
2018-03-16T21:15:49.828Z,6.60
2018-03-16T21:18:16.509Z,6.50
2018-03-16T21:20:42.787Z,6.50
2018-03-16T21:23:10.005Z,6.60
2018-03-16T21:25:36.323Z,6.50
2018-03-16T21:28:02.658Z,6.40
2018-03-16T21:30:28.918Z,6.40
2018-03-16T21:32:55.557Z,6.30
2018-03-16T21:35:21.916Z,6.10
2018-03-16T21:37:48.216Z,6.20
2018-03-16T21:40:14.527Z,6.20
2018-03-16T21:42:41.228Z,6.20
2018-03-16T21:45:07.516Z,6.20
2018-03-16T21:47:33.874Z,6.10
2018-03-16T21:50:00.205Z,6.10
2018-03-16T21:52:26.516Z,6.00
2018-03-16T21:54:53.226Z,5.90
2018-03-16T21:57:19.571Z,5.90
2018-03-16T21:59:45.900Z,5.80
2018-03-16T22:02:12.247Z,5.90
2018-03-16T22:04:38.565Z,5.90
2018-03-16T22:07:06.601Z,5.80
2018-03-16T22:09:32.875Z,5.70
2018-03-16T22:11:59.249Z,5.70
2018-03-16T22:14:25.957Z,5.60
2018-03-16T22:16:52.265Z,5.60
2018-03-16T22:19:18.673Z,5.50
2018-03-16T22:21:44.972Z,5.50
2018-03-16T22:24:11.245Z,5.50
2018-03-16T22:26:37.886Z,5.40
2018-03-16T22:29:04.536Z,5.40
2018-03-16T22:31:30.834Z,5.40
2018-03-16T22:33:57.097Z,5.50
2018-03-16T22:36:23.779Z,5.50
2018-03-16T22:38:50.106Z,5.50
2018-03-16T22:41:16.413Z,5.40
2018-03-16T22:43:43.382Z,5.40
2018-03-16T22:46:11.403Z,5.40
2018-03-16T22:48:37.670Z,5.30
2018-03-16T22:51:04.312Z,5.50
2018-03-16T22:53:30.983Z,5.50
2018-03-16T22:55:58.149Z,5.40
2018-03-16T22:58:24.419Z,5.40
2018-03-16T23:00:50.762Z,5.30
2018-03-16T23:03:17.038Z,5.30
2018-03-16T23:05:43.313Z,5.30
2018-03-16T23:08:09.703Z,5.20
2018-03-16T23:10:36.787Z,5.10
2018-03-16T23:13:03.046Z,5.10
2018-03-16T23:15:29.616Z,5.00
2018-03-16T23:17:55.909Z,5.10
2018-03-16T23:20:22.173Z,5.10
2018-03-16T23:22:48.437Z,5.10
2018-03-16T23:25:15.090Z,5.00
2018-03-16T23:27:41.918Z,5.00
2018-03-16T23:30:08.579Z,4.80
2018-03-16T23:32:34.843Z,4.80
2018-03-16T23:35:01.155Z,4.80
2018-03-16T23:37:27.454Z,4.70
2018-03-16T23:39:53.714Z,4.60
2018-03-16T23:42:20.368Z,4.60
2018-03-16T23:44:47.003Z,4.50
2018-03-16T23:47:13.663Z,4.60
2018-03-16T23:49:40.057Z,4.60
2018-03-16T23:52:06.359Z,4.60
2018-03-16T23:54:32.672Z,4.60
2018-03-16T23:56:58.970Z,4.60
2018-03-16T23:59:25.267Z,4.60
